Menominee, MI

6:54 AM CDT on April 23, 2018 (GMT -0500)
Menominee-Marinette Twin County

Weather History for KMNM - October, 2011

Change the Weather History Date:

Sunday, October 2, 2011

  Actual Average Record
Temperature  
Mean Temperature 49 °F -  
Max Temperature 68 °F 65 °F 83 °F (1971)
Min Temperature 30 °F 44 °F 21 °F (1974)
Degree Days  
Heating Degree Days 16    
Moisture  
Dew Point 39 °F    
Average Humidity 75    
Maximum Humidity 100    
Minimum Humidity 33    
Precipitation  
Precipitation 0.00 in - - ()
Sea Level Pressure  
Sea Level Pressure 30.21 in    
Wind  
Wind Speed 2 mph (WNW)    
Max Wind Speed 9 mph    
Max Gust Speed -    
Visibility 9 miles    
Events      
Averages and records for this station are not official NWS values.
T = Trace of Precipitation, MM = Missing Value Source: NWS Daily Summary

Daily Weather History Graph

Daily Weather History Graph

Search for Another Location

Airport or City:

Astronomy

Oct. 02, 2011 Rise Set
Actual Time 6:49 AM CDT 6:29 PM CDT
Civil Twilight 6:20 AM CDT 6:58 PM CDT
Nautical Twilight 5:46 AM CDT 7:32 PM CDT
Astronomical Twilight 5:11 AM CDT 8:07 PM CDT
Moon 1:11 PM CDT (10/2) 10:12 PM CDT (10/2)
Length of Visible Light 12h 38m
Length of Day
11h 40m
Waxing Crescent, 35% of the Moon is Illuminated
Oct 2
Waxing Crescent
Oct 3
First Quarter
Oct 11
Full
Oct 19
Last Quarter
Oct 26
New

Hourly Weather History & Observations

Time (CDT) Temp. Windchill Dew Point Humidity Pressure Visibility Wind Dir Wind Speed Gust Speed Precip Events Conditions
12:15 AM 35.6 °F - 35.6 °F 100% 30.27 in 8.0 mi Calm Calm - N/A   Clear
12:55 AM 33.8 °F 30.8 °F 33.8 °F 100% 30.27 in 7.0 mi NW 3.5 mph - N/A   Clear
1:15 AM 33.8 °F - 33.8 °F 100% 30.27 in 8.0 mi Calm Calm - N/A   Clear
1:35 AM 33.8 °F - 33.8 °F 100% 30.27 in 6.0 mi Calm Calm - N/A   Clear
1:55 AM 33.8 °F - 32.0 °F 93% 30.27 in 5.0 mi Calm Calm - N/A   Clear
2:15 AM 33.8 °F - 32.0 °F 93% 30.27 in 7.0 mi Calm Calm - N/A   Clear
2:35 AM 32.0 °F - 30.2 °F 93% 30.27 in 6.0 mi Calm Calm - N/A   Clear
2:55 AM 32.0 °F - 32.0 °F 100% 30.27 in 3.0 mi Calm Calm - N/A   Clear
3:15 AM 32.0 °F - 30.2 °F 93% 30.27 in 7.0 mi Calm Calm - N/A   Clear
3:35 AM 32.0 °F - 32.0 °F 100% 30.27 in 8.0 mi Calm Calm - N/A   Clear
3:55 AM 32.0 °F - 30.2 °F 93% 30.27 in 7.0 mi Calm Calm - N/A   Clear
4:35 AM 30.2 °F - 30.2 °F 100% 30.26 in 8.0 mi Calm Calm - N/A   Clear
4:55 AM 32.0 °F - 32.0 °F 100% 30.26 in 7.0 mi Calm Calm - N/A   Clear
5:15 AM 30.2 °F 26.7 °F 30.2 °F 100% 30.26 in 6.0 mi West 3.5 mph - N/A   Clear
5:35 AM 30.2 °F - 30.2 °F 100% 30.26 in 9.0 mi Calm Calm - N/A   Clear
5:55 AM 30.2 °F - 30.2 °F 100% 30.26 in 5.0 mi Calm Calm - N/A   Clear
6:15 AM 32.0 °F 28.7 °F 30.2 °F 93% 30.26 in 8.0 mi WNW 3.5 mph - N/A   Clear
6:35 AM 33.8 °F 29.6 °F 33.8 °F 100% 30.27 in 10.0 mi NW 4.6 mph - N/A   Clear
6:55 AM 33.8 °F 30.8 °F 32.0 °F 93% 30.27 in 10.0 mi WNW 3.5 mph - N/A   Clear
7:15 AM 33.8 °F 30.8 °F 32.0 °F 93% 30.27 in 9.0 mi WNW 3.5 mph - N/A   Clear
7:35 AM 33.8 °F - 33.8 °F 100% 30.27 in 10.0 mi Calm Calm - N/A   Clear
7:55 AM 35.6 °F - 35.6 °F 100% 30.26 in 10.0 mi Calm Calm - N/A   Clear
8:15 AM 37.4 °F 34.9 °F 35.6 °F 93% 30.26 in 10.0 mi WNW 3.5 mph - N/A   Clear
8:35 AM 39.2 °F - 37.4 °F 93% 30.26 in 10.0 mi Calm Calm - N/A   Clear
8:55 AM 41.0 °F - 39.2 °F 93% 30.26 in 10.0 mi Calm Calm - N/A   Clear
9:15 AM 42.8 °F 41.1 °F 39.2 °F 87% 30.26 in 10.0 mi WNW 3.5 mph - N/A   Clear
9:35 AM 46.4 °F 45.2 °F 39.2 °F 76% 30.26 in 10.0 mi NW 3.5 mph - N/A   Clear
9:55 AM 46.4 °F 45.2 °F 39.2 °F 76% 30.25 in 10.0 mi West 3.5 mph - N/A   Clear
10:15 AM 48.2 °F - 39.2 °F 71% 30.25 in 10.0 mi Calm Calm - N/A   Clear
10:35 AM 51.8 °F - 39.2 °F 62% 30.24 in 10.0 mi West 4.6 mph - N/A   Clear
10:55 AM 53.6 °F - 39.2 °F 58% 30.24 in 10.0 mi NW 5.8 mph - N/A   Clear
11:15 AM 55.4 °F - 37.4 °F 51% 30.23 in 10.0 mi NNW 6.9 mph - N/A   Clear
11:35 AM 57.2 °F - 39.2 °F 51% 30.22 in 10.0 mi NW 4.6 mph - N/A   Clear
11:55 AM 59.0 °F - 41.0 °F 51% 30.21 in 10.0 mi Calm Calm - N/A   Clear
12:15 PM 60.8 °F - 39.2 °F 45% 30.21 in 10.0 mi WNW 4.6 mph - N/A   Clear
12:35 PM 62.6 °F - 37.4 °F 39% 30.20 in 10.0 mi Calm Calm - N/A   Clear
12:55 PM 62.6 °F - 37.4 °F 39% 30.18 in 10.0 mi NW 3.5 mph - N/A   Clear
1:15 PM 64.4 °F - 37.4 °F 37% 30.17 in 10.0 mi NW 3.5 mph - N/A   Clear
1:35 PM 64.4 °F - 37.4 °F 37% 30.17 in 10.0 mi West 3.5 mph - N/A   Clear
1:55 PM 64.4 °F - 35.6 °F 34% 30.15 in 10.0 mi WNW 5.8 mph - N/A   Clear
2:15 PM 66.2 °F - 37.4 °F 35% 30.15 in 10.0 mi WSW 5.8 mph - N/A   Clear
2:35 PM 66.2 °F - 39.2 °F 37% 30.14 in 10.0 mi WNW 4.6 mph - N/A   Clear
2:55 PM 66.2 °F - 37.4 °F 35% 30.14 in 10.0 mi WSW 8.1 mph - N/A   Clear
3:15 PM 68.0 °F - 37.4 °F 33% 30.13 in 10.0 mi West 6.9 mph - N/A   Clear
3:35 PM 68.0 °F - 37.4 °F 33% 30.13 in 10.0 mi West 4.6 mph - N/A   Clear
3:55 PM 68.0 °F - 39.2 °F 35% 30.13 in 10.0 mi SSW 6.9 mph - N/A   Clear
4:35 PM 64.4 °F - 42.8 °F 45% 30.14 in 10.0 mi South 6.9 mph - N/A   Clear
5:15 PM 64.4 °F - 42.8 °F 45% 30.13 in 10.0 mi SSW 6.9 mph - N/A   Clear
5:35 PM 62.6 °F - 44.6 °F 52% 30.13 in 10.0 mi SSW 3.5 mph - N/A   Clear
5:55 PM 60.8 °F - 42.8 °F 52% 30.14 in 10.0 mi SW 3.5 mph - N/A   Clear
6:15 PM 60.8 °F - 42.8 °F 52% 30.13 in 10.0 mi SW 3.5 mph - N/A   Clear
6:55 PM 55.4 °F - 44.6 °F 67% 30.14 in 10.0 mi Calm Calm - N/A   Clear
7:15 PM 53.6 °F - 44.6 °F 72% 30.14 in 10.0 mi Calm Calm - N/A   Clear
7:35 PM 51.8 °F - 44.6 °F 76% 30.15 in 4.0 mi Calm Calm - N/A   Clear
7:55 PM 51.8 °F - 46.4 °F 82% 30.14 in 10.0 mi Calm Calm - N/A   Clear
8:15 PM 48.2 °F - 44.6 °F 87% 30.14 in 10.0 mi Calm Calm - N/A   Clear
8:35 PM 48.2 °F - 46.4 °F 93% 30.14 in 10.0 mi Calm Calm - N/A   Clear
8:55 PM 48.2 °F - 46.4 °F 93% 30.15 in 10.0 mi ENE 9.2 mph - N/A   Clear
9:15 PM 51.8 °F - 50.0 °F 94% 30.16 in 10.0 mi East 6.9 mph - N/A   Clear
9:35 PM 53.6 °F - 48.2 °F 82% 30.16 in 10.0 mi ESE 5.8 mph - N/A   Clear
9:55 PM 53.6 °F - 46.4 °F 77% 30.16 in 8.0 mi SE 3.5 mph - N/A   Clear
10:15 PM 51.8 °F - 46.4 °F 82% 30.16 in 10.0 mi Calm Calm - N/A   Clear
10:35 PM 50.0 °F - 46.4 °F 87% 30.16 in 10.0 mi NNE 3.5 mph - N/A   Clear
10:55 PM 48.2 °F - 46.4 °F 93% 30.16 in 10.0 mi NNE 3.5 mph - N/A   Clear
11:15 PM 48.2 °F - 46.4 °F 93% 30.17 in 10.0 mi NE 5.8 mph - N/A   Clear
11:35 PM 48.2 °F - 46.4 °F 93% 30.17 in 10.0 mi NNE 5.8 mph - N/A   Clear
11:55 PM 48.2 °F - 46.4 °F 93% 30.17 in 10.0 mi NNE 5.8 mph - N/A   Clear